logo
Search for airport 
image banner adimage banner adimage banner ad
image banner ad

HKJK - Nairobi Jomo Kenyatta Intl

Located in Nairobi, Kenya

ICAO - HKJK, IATA - NBO

Data provided by Airmate  

General information

Coordinates: S1°19'9" E36°55'40"
Elevation is 5330 feet MSL.
Magnetic variation is 1° East
Rated:
View ratings:
[VIEW]
View others Airports in Nairobi Province

Operational data

Special qualification required
Current time UTC:
Current local time:
Weather
METAR: HKJK 152200Z 17006KT 9999 BKN015 16/16 Q1024 NOSIG
TAF: TAF HKJK 151100Z 1512/1618 07010KT 9999 FEW024CB BKN025 TEMPO 1514/15 18 -TSRA FEW019CB BKN020 BKN080 BECMG 1520/1523 24005KT -RA SCT018 BK N080 BECMG 1608/1611 07010KT NSW FEW024CB BKN025 TEMPO 1614/1618 -TSR A FEW019CB BKN020 BKN080
View NOTAMs / SUP AIP / TFR affecting this airport [VIEW]
Communications frequencies: [VIEW]

Runways:

RWY identifierQFULength (ft)Width (ft)SurfaceLDA (ft)
0654°13510143ASPH13507
24234°13510143ASPH13507

Airport contact information

Address: Nairobi Kenya

Satellite view of HKJK